createdAt,value
2019-02-26T00:01:34.931Z,103387.40
2019-02-26T00:04:04.732Z,103387.89
2019-02-26T00:06:34.483Z,103384.74
2019-02-26T00:09:06.848Z,103373.57
2019-02-26T00:11:38.419Z,103379.39
2019-02-26T00:14:08.118Z,103373.16
2019-02-26T00:16:39.963Z,103370.93
2019-02-26T00:19:09.831Z,103373.62
2019-02-26T00:21:40.885Z,103377.64
2019-02-26T00:24:12.816Z,103379.86
2019-02-26T00:26:43.491Z,103384.33
2019-02-26T00:29:13.580Z,103377.20
2019-02-26T00:31:46.048Z,103378.95
2019-02-26T00:34:16.877Z,103378.50
2019-02-26T00:36:46.564Z,103380.27
2019-02-26T00:39:16.278Z,103391.89
2019-02-26T00:41:49.320Z,103393.22
2019-02-26T00:44:18.614Z,103391.88
2019-02-26T00:46:48.887Z,103388.29
2019-02-26T00:49:19.110Z,103383.38
2019-02-26T00:51:52.401Z,103385.60
2019-02-26T00:54:24.306Z,103379.80
2019-02-26T00:56:53.034Z,103387.81
2019-02-26T00:59:22.765Z,103380.62
2019-02-26T01:01:54.490Z,103377.05
2019-02-26T01:04:24.510Z,103375.67
2019-02-26T01:06:54.217Z,103377.88
2019-02-26T01:09:25.179Z,103381.89
2019-02-26T01:11:55.448Z,103380.09
2019-02-26T01:14:25.234Z,103389.39
2019-02-26T01:16:54.997Z,103383.14
2019-02-26T01:19:24.716Z,103383.50
2019-02-26T01:21:54.426Z,103378.61
2019-02-26T01:24:25.857Z,103375.37
2019-02-26T01:26:55.572Z,103380.24
2019-02-26T01:29:27.632Z,103379.31
2019-02-26T01:31:56.777Z,103383.33
2019-02-26T01:34:26.503Z,103384.20
2019-02-26T01:36:56.228Z,103379.12
2019-02-26T01:39:26.043Z,103387.49
2019-02-26T01:41:56.258Z,103382.58
2019-02-26T01:44:30.182Z,103372.43
2019-02-26T01:47:00.878Z,103367.08
2019-02-26T01:49:30.176Z,103359.59
2019-02-26T01:52:00.009Z,103351.58
2019-02-26T01:54:30.525Z,103355.22
2019-02-26T01:57:01.177Z,103344.16
2019-02-26T01:59:31.710Z,103347.38
2019-02-26T02:02:02.302Z,103343.44
2019-02-26T02:04:34.110Z,103347.00
2019-02-26T02:07:05.833Z,103349.22
2019-02-26T02:09:35.109Z,103346.13
2019-02-26T02:12:07.126Z,103338.09
2019-02-26T02:14:36.306Z,103333.16
2019-02-26T02:17:08.350Z,103330.42
2019-02-26T02:19:37.694Z,103327.28
2019-02-26T02:22:07.474Z,103337.14
2019-02-26T02:24:39.234Z,103329.53
2019-02-26T02:27:08.856Z,103324.15
2019-02-26T02:29:41.832Z,103333.09
2019-02-26T02:32:10.253Z,103330.84
2019-02-26T02:34:42.886Z,103335.30
2019-02-26T02:37:11.483Z,103325.05
2019-02-26T02:39:41.200Z,103334.44
2019-02-26T02:42:13.323Z,103335.77
2019-02-26T02:44:44.849Z,103338.95
2019-02-26T02:47:13.784Z,103331.83
2019-02-26T02:49:44.370Z,103334.48
2019-02-26T02:52:14.260Z,103334.05
2019-02-26T02:54:47.019Z,103343.01
2019-02-26T02:57:15.496Z,103334.95
2019-02-26T02:59:45.354Z,103335.88
2019-02-26T03:02:17.396Z,103349.77
2019-02-26T03:04:46.530Z,103347.11
2019-02-26T03:07:17.814Z,103343.59
2019-02-26T03:09:47.744Z,103340.00
2019-02-26T03:12:17.651Z,103340.91
2019-02-26T03:14:47.638Z,103350.30
2019-02-26T03:17:20.134Z,103353.88
2019-02-26T03:19:49.006Z,103347.16
2019-02-26T03:22:21.589Z,103346.70
2019-02-26T03:24:53.805Z,103355.25
2019-02-26T03:27:23.496Z,103353.01
2019-02-26T03:29:56.230Z,103349.45
2019-02-26T03:32:25.499Z,103352.11
2019-02-26T03:34:55.398Z,103357.91
2019-02-26T03:37:25.914Z,103356.15
2019-02-26T03:39:58.069Z,103357.92
2019-02-26T03:42:28.577Z,103357.95
2019-02-26T03:44:59.619Z,103350.36
2019-02-26T03:47:30.868Z,103348.55
2019-02-26T03:50:00.578Z,103351.72
2019-02-26T03:52:32.128Z,103353.51
2019-02-26T03:55:03.331Z,103347.23
2019-02-26T03:57:33.741Z,103343.20
2019-02-26T04:00:08.185Z,103344.13
2019-02-26T04:02:37.514Z,103345.45
2019-02-26T04:05:10.736Z,103341.89
2019-02-26T04:07:40.512Z,103338.76
2019-02-26T04:10:13.794Z,103348.56
2019-02-26T04:12:45.049Z,103355.72
2019-02-26T04:15:24.316Z,103352.17
2019-02-26T04:17:52.711Z,103346.36
2019-02-26T04:20:22.450Z,103348.14
2019-02-26T04:22:53.308Z,103345.02
2019-02-26T04:25:44.891Z,103350.83
2019-02-26T04:28:33.016Z,103346.36
2019-02-26T04:31:10.248Z,103351.23
2019-02-26T04:34:08.532Z,103349.44
2019-02-26T04:37:04.776Z,103352.59
2019-02-26T04:39:44.962Z,103342.30
2019-02-26T04:42:38.394Z,103331.55
2019-02-26T04:45:14.201Z,103323.12
2019-02-26T04:47:56.981Z,103324.00
2019-02-26T04:50:28.699Z,103324.00
2019-02-26T04:52:59.115Z,103322.21
2019-02-26T04:55:29.724Z,103327.15
2019-02-26T04:57:58.812Z,103334.73
2019-02-26T05:00:30.390Z,103318.19
2019-02-26T05:02:59.985Z,103324.87
2019-02-26T05:05:32.020Z,103323.08
2019-02-26T05:08:04.055Z,103329.33
2019-02-26T05:10:34.334Z,103333.34
2019-02-26T05:13:07.380Z,103331.48
2019-02-26T05:15:35.686Z,103328.81
2019-02-26T05:18:05.477Z,103328.37
2019-02-26T05:20:36.794Z,103320.30
2019-02-26T05:23:06.752Z,103325.59
2019-02-26T05:25:39.238Z,103322.48
2019-02-26T05:28:10.070Z,103332.74
2019-02-26T05:30:40.435Z,103323.80
2019-02-26T05:33:11.100Z,103323.25
2019-02-26T05:35:43.555Z,103340.67
2019-02-26T05:38:12.255Z,103323.28
2019-02-26T05:40:42.851Z,103319.22
2019-02-26T05:43:13.599Z,103326.02
2019-02-26T05:45:43.301Z,103339.75
2019-02-26T05:48:15.340Z,103341.09
2019-02-26T05:50:44.800Z,103341.48
2019-02-26T05:53:14.552Z,103336.50
2019-02-26T05:55:47.559Z,103343.09
2019-02-26T05:58:18.666Z,103346.17
2019-02-26T06:00:47.016Z,103340.83
2019-02-26T06:03:18.604Z,103340.22
2019-02-26T06:05:48.948Z,103340.09
2019-02-26T06:08:19.359Z,103343.30
2019-02-26T06:10:49.006Z,103338.70
2019-02-26T06:13:18.712Z,103342.27
2019-02-26T06:15:51.273Z,103341.43
2019-02-26T06:18:21.001Z,103338.25
2019-02-26T06:20:51.719Z,103346.30
2019-02-26T06:23:23.148Z,103345.07
2019-02-26T06:25:55.998Z,103339.67
2019-02-26T06:28:25.727Z,103328.84
2019-02-26T06:30:55.385Z,103328.44
2019-02-26T06:33:25.064Z,103323.15
2019-02-26T06:35:55.319Z,103318.69
2019-02-26T06:38:28.062Z,103322.72
2019-02-26T06:40:57.412Z,103325.80
2019-02-26T06:43:27.108Z,103323.65
2019-02-26T06:45:56.826Z,103319.12
2019-02-26T06:48:29.195Z,103323.65
2019-02-26T06:50:59.866Z,103325.53
2019-02-26T06:53:29.277Z,103320.30
2019-02-26T06:56:00.771Z,103324.77
2019-02-26T06:58:30.419Z,103332.84
2019-02-26T07:01:00.153Z,103330.66
2019-02-26T07:03:29.848Z,103321.68
2019-02-26T07:06:01.715Z,103327.95
2019-02-26T07:08:31.246Z,103328.95
2019-02-26T07:11:00.955Z,103337.50
2019-02-26T07:13:30.688Z,103330.92
2019-02-26T07:16:04.605Z,103328.70
2019-02-26T07:18:31.952Z,103337.27
2019-02-26T07:21:01.625Z,103332.39
2019-02-26T07:23:35.194Z,103326.62
2019-02-26T07:26:04.711Z,103316.38
2019-02-26T07:28:34.359Z,103319.95
2019-02-26T07:31:05.512Z,103315.06
2019-02-26T07:33:37.059Z,103311.03
2019-02-26T07:36:07.148Z,103313.70
2019-02-26T07:38:41.324Z,103318.60
2019-02-26T07:41:08.438Z,103302.92
2019-02-26T07:43:41.094Z,103307.81
2019-02-26T07:46:12.150Z,103296.19
2019-02-26T07:48:41.334Z,103294.80
2019-02-26T07:51:11.085Z,103292.07
2019-02-26T07:53:44.404Z,103290.25
2019-02-26T07:56:12.252Z,103293.32
2019-02-26T07:58:43.126Z,103300.87
2019-02-26T08:01:13.014Z,103300.36
2019-02-26T08:03:43.900Z,103297.55
2019-02-26T08:06:14.255Z,103300.18
2019-02-26T08:08:44.934Z,103307.69
2019-02-26T08:11:15.573Z,103308.05
2019-02-26T08:13:45.290Z,103304.91
2019-02-26T08:16:15.008Z,103302.61
2019-02-26T08:18:44.655Z,103302.05
2019-02-26T08:21:14.327Z,103308.55
2019-02-26T08:23:46.025Z,103307.32
2019-02-26T08:26:17.294Z,103307.83
2019-02-26T08:28:48.229Z,103308.63
2019-02-26T08:31:20.523Z,103310.34
2019-02-26T08:33:51.692Z,103322.73
2019-02-26T08:36:21.137Z,103317.34
2019-02-26T08:38:52.059Z,103312.70
2019-02-26T08:41:21.870Z,103307.27
2019-02-26T08:43:53.970Z,103296.80
2019-02-26T08:46:23.096Z,103300.23
2019-02-26T08:48:52.840Z,103294.95
2019-02-26T08:51:22.568Z,103299.25
2019-02-26T08:53:54.691Z,103303.78
2019-02-26T08:56:26.213Z,103306.04
2019-02-26T08:58:55.286Z,103314.82
2019-02-26T09:01:24.981Z,103302.52
2019-02-26T09:03:55.932Z,103297.02
2019-02-26T09:06:26.136Z,103299.55
2019-02-26T09:08:57.939Z,103304.63
2019-02-26T09:11:28.795Z,103301.31
2019-02-26T09:13:59.398Z,103308.01
2019-02-26T09:16:30.426Z,103306.30
2019-02-26T09:19:01.168Z,103299.16
2019-02-26T09:21:30.844Z,103293.27
2019-02-26T09:24:04.208Z,103305.59
2019-02-26T09:26:31.994Z,103302.84
2019-02-26T09:29:01.807Z,103311.06
2019-02-26T09:31:31.583Z,103302.82
2019-02-26T09:34:01.272Z,103306.09
2019-02-26T09:36:31.099Z,103298.06
2019-02-26T09:39:00.781Z,103310.83
2019-02-26T09:41:30.706Z,103309.78
2019-02-26T09:44:03.844Z,103310.62
2019-02-26T09:46:35.878Z,103317.91
2019-02-26T09:49:05.108Z,103310.64
2019-02-26T09:51:35.317Z,103308.28
2019-02-26T09:54:06.120Z,103307.63
2019-02-26T09:56:35.889Z,103308.36
2019-02-26T09:59:07.144Z,103305.41
2019-02-26T10:01:37.844Z,103300.60
2019-02-26T10:04:08.455Z,103305.44
2019-02-26T10:06:40.541Z,103309.20
2019-02-26T10:09:12.780Z,103308.78
2019-02-26T10:11:42.435Z,103309.05
2019-02-26T10:14:12.697Z,103310.64
2019-02-26T10:16:44.556Z,103315.84
2019-02-26T10:19:17.097Z,103314.39
2019-02-26T10:21:46.420Z,103310.95
2019-02-26T10:24:18.398Z,103314.30
2019-02-26T10:26:47.500Z,103313.79
2019-02-26T10:29:17.153Z,103311.95
2019-02-26T10:31:46.858Z,103314.55
2019-02-26T10:34:19.141Z,103318.70
2019-02-26T10:36:51.281Z,103323.88
2019-02-26T10:39:20.818Z,103326.66
2019-02-26T10:41:50.669Z,103328.14
2019-02-26T10:44:20.545Z,103327.33
2019-02-26T10:46:50.264Z,103338.84
2019-02-26T10:49:20.044Z,103342.80
2019-02-26T10:51:49.669Z,103340.17
2019-02-26T10:54:19.410Z,103345.70
2019-02-26T10:56:49.037Z,103337.41
2019-02-26T10:59:19.675Z,103346.27
2019-02-26T11:01:52.036Z,103336.30
2019-02-26T11:04:20.922Z,103343.39
2019-02-26T11:06:50.621Z,103342.80
2019-02-26T11:09:25.403Z,103336.31
2019-02-26T11:11:51.613Z,103331.95
2019-02-26T11:14:21.394Z,103328.48
2019-02-26T11:16:51.087Z,103322.13
2019-02-26T11:19:20.898Z,103325.81
2019-02-26T11:21:55.560Z,103327.87
2019-02-26T11:24:23.477Z,103336.47
2019-02-26T11:26:53.396Z,103327.92
2019-02-26T11:29:23.140Z,103325.20
2019-02-26T11:31:52.835Z,103325.77
2019-02-26T11:34:22.530Z,103325.06
2019-02-26T11:36:54.165Z,103333.46
2019-02-26T11:39:23.782Z,103329.14
2019-02-26T11:41:54.571Z,103327.79
2019-02-26T11:44:25.770Z,103325.48
2019-02-26T11:46:56.596Z,103313.53
2019-02-26T11:49:26.384Z,103310.42
2019-02-26T11:51:56.058Z,103298.45
2019-02-26T11:54:31.219Z,103286.86
2019-02-26T11:56:58.120Z,103284.43
2019-02-26T11:59:27.837Z,103278.28
2019-02-26T12:01:59.142Z,103275.14
2019-02-26T12:04:29.017Z,103268.63
2019-02-26T12:07:01.044Z,103265.63
2019-02-26T12:09:32.948Z,103269.25
2019-02-26T12:12:03.469Z,103271.95
2019-02-26T12:14:34.746Z,103265.57
2019-02-26T12:17:04.381Z,103265.52
2019-02-26T12:19:34.947Z,103267.19
2019-02-26T12:22:06.073Z,103266.92
2019-02-26T12:24:36.251Z,103264.97
2019-02-26T12:27:07.312Z,103255.56
2019-02-26T12:29:37.271Z,103258.53
2019-02-26T12:32:06.993Z,103267.45
2019-02-26T12:34:38.487Z,103265.09
2019-02-26T12:37:11.160Z,103266.67
2019-02-26T12:39:39.520Z,103272.14
2019-02-26T12:42:10.561Z,103277.89
2019-02-26T12:44:44.825Z,103272.48
2019-02-26T12:47:14.684Z,103271.17
2019-02-26T12:49:45.138Z,103272.06
2019-02-26T12:52:16.086Z,103267.52
2019-02-26T12:54:46.365Z,103262.05
2019-02-26T12:57:19.081Z,103258.08
2019-02-26T12:59:47.587Z,103256.30
2019-02-26T13:02:20.793Z,103255.58
2019-02-26T13:04:51.150Z,103246.86
2019-02-26T13:07:20.266Z,103248.35
2019-02-26T13:09:54.687Z,103245.83
2019-02-26T13:12:24.158Z,103241.68
2019-02-26T13:14:56.482Z,103231.09
2019-02-26T13:17:28.191Z,103227.28
2019-02-26T13:19:58.954Z,103221.69
2019-02-26T13:22:28.152Z,103212.95
2019-02-26T13:25:00.247Z,103207.77
2019-02-26T13:27:30.236Z,103194.36
2019-02-26T13:30:00.090Z,103195.04
2019-02-26T13:32:32.154Z,103193.94
2019-02-26T13:35:07.404Z,103192.58
2019-02-26T13:37:36.592Z,103189.31
2019-02-26T13:40:13.410Z,103184.48
2019-02-26T13:42:49.907Z,103183.25
2019-02-26T13:45:17.050Z,103179.63
2019-02-26T13:47:46.994Z,103184.80
2019-02-26T13:50:27.533Z,103188.21
2019-02-26T13:52:57.346Z,103188.61
2019-02-26T13:55:27.128Z,103187.92
2019-02-26T13:57:56.837Z,103189.29
2019-02-26T14:00:27.164Z,103186.91
2019-02-26T14:02:56.889Z,103185.00
2019-02-26T14:05:26.545Z,103188.72
2019-02-26T14:07:56.301Z,103188.28
2019-02-26T14:10:26.698Z,103187.20
2019-02-26T14:12:56.650Z,103183.56
2019-02-26T14:15:27.543Z,103183.28
2019-02-26T14:17:57.450Z,103183.48
2019-02-26T14:20:27.248Z,103184.47
2019-02-26T14:22:56.942Z,103192.27
2019-02-26T14:25:26.719Z,103185.16
2019-02-26T14:27:56.496Z,103176.45
2019-02-26T14:30:26.276Z,103184.89
2019-02-26T14:32:56.104Z,103183.39
2019-02-26T14:35:25.930Z,103180.95
2019-02-26T14:37:57.166Z,103170.23
2019-02-26T14:40:26.806Z,103165.26
2019-02-26T14:42:56.535Z,103166.42
2019-02-26T14:45:27.331Z,103166.77
2019-02-26T14:47:57.025Z,103168.01
2019-02-26T14:50:27.068Z,103169.78
2019-02-26T14:52:56.783Z,103168.29
2019-02-26T14:55:26.493Z,103167.88
2019-02-26T14:57:56.177Z,103173.34
2019-02-26T15:00:29.799Z,103178.12
2019-02-26T15:02:59.460Z,103179.84
2019-02-26T15:05:29.107Z,103169.39
2019-02-26T15:07:58.769Z,103161.08
2019-02-26T15:10:28.564Z,103166.53
2019-02-26T15:12:58.399Z,103167.00
2019-02-26T15:15:28.110Z,103157.31
2019-02-26T15:17:57.782Z,103157.14
2019-02-26T15:20:30.156Z,103166.68
2019-02-26T15:22:59.874Z,103162.98
2019-02-26T15:25:31.432Z,103165.89
2019-02-26T15:28:05.629Z,103166.78
2019-02-26T15:30:35.448Z,103169.30
2019-02-26T15:33:11.195Z,103161.52
2019-02-26T15:35:36.584Z,103163.78
2019-02-26T15:38:06.306Z,103168.13
2019-02-26T15:40:35.942Z,103172.88
2019-02-26T15:43:05.701Z,103169.97
2019-02-26T15:45:35.510Z,103162.26
2019-02-26T15:48:05.288Z,103162.92
2019-02-26T15:50:34.998Z,103168.79
2019-02-26T15:53:04.661Z,103173.95
2019-02-26T15:55:34.477Z,103182.94
2019-02-26T15:58:06.700Z,103181.41
2019-02-26T16:00:37.677Z,103179.34
2019-02-26T16:03:07.287Z,103177.12
2019-02-26T16:05:40.525Z,103171.55
2019-02-26T16:08:10.406Z,103177.56
2019-02-26T16:10:40.320Z,103182.27
2019-02-26T16:13:10.055Z,103187.36
2019-02-26T16:15:40.150Z,103184.38
2019-02-26T16:18:10.008Z,103188.89
2019-02-26T16:20:41.353Z,103186.44
2019-02-26T16:23:11.220Z,103185.95
2019-02-26T16:25:40.863Z,103181.67
2019-02-26T16:28:27.327Z,103176.23
2019-02-26T16:30:59.879Z,103176.45
2019-02-26T16:33:29.713Z,103176.16
2019-02-26T16:35:59.375Z,103177.42
2019-02-26T16:38:29.071Z,103180.23
2019-02-26T16:40:58.733Z,103177.31
2019-02-26T16:43:28.385Z,103175.16
2019-02-26T16:46:00.165Z,103173.66
2019-02-26T16:48:29.855Z,103171.56
2019-02-26T16:50:59.800Z,103182.03
2019-02-26T16:53:33.485Z,103189.63
2019-02-26T16:56:01.317Z,103189.05
2019-02-26T16:58:35.207Z,103193.41
2019-02-26T17:01:05.828Z,103193.30
2019-02-26T17:03:35.537Z,103195.30
2019-02-26T17:06:05.495Z,103195.45
2019-02-26T17:08:35.527Z,103202.69
2019-02-26T17:11:05.327Z,103204.46
2019-02-26T17:13:35.333Z,103203.68
2019-02-26T17:16:05.000Z,103205.91
2019-02-26T17:18:34.899Z,103204.44
2019-02-26T17:21:04.769Z,103199.70
2019-02-26T17:23:34.376Z,103199.20
2019-02-26T17:26:04.310Z,103201.67
2019-02-26T17:28:33.947Z,103203.86
2019-02-26T17:31:03.660Z,103199.14
2019-02-26T17:33:33.302Z,103204.05
2019-02-26T17:36:02.994Z,103208.98
2019-02-26T17:38:32.643Z,103201.27
2019-02-26T17:41:04.485Z,103207.93
2019-02-26T17:43:34.176Z,103203.91
2019-02-26T17:46:04.040Z,103197.95
2019-02-26T17:48:43.100Z,103203.56
2019-02-26T17:51:05.059Z,103205.13
2019-02-26T17:53:34.737Z,103203.50
2019-02-26T17:56:05.310Z,103206.06
2019-02-26T17:58:35.010Z,103209.11
2019-02-26T18:01:05.325Z,103210.27
2019-02-26T18:03:35.201Z,103208.75
2019-02-26T18:06:04.842Z,103207.66
2019-02-26T18:08:34.608Z,103208.70
2019-02-26T18:11:04.689Z,103202.19
2019-02-26T18:13:37.416Z,103204.60
2019-02-26T18:16:09.881Z,103201.27
2019-02-26T18:18:38.815Z,103207.16
2019-02-26T18:21:08.480Z,103199.66
2019-02-26T18:23:38.341Z,103204.27
2019-02-26T18:26:09.427Z,103203.51
2019-02-26T18:28:39.028Z,103194.29
2019-02-26T18:31:08.763Z,103195.89
2019-02-26T18:33:38.592Z,103194.67
2019-02-26T18:36:08.271Z,103196.22
2019-02-26T18:38:37.932Z,103190.05
2019-02-26T18:41:07.751Z,103196.02
2019-02-26T18:43:37.394Z,103197.51
2019-02-26T18:46:08.623Z,103192.80
2019-02-26T18:48:38.478Z,103193.58
2019-02-26T18:51:08.205Z,103191.80
2019-02-26T18:53:38.062Z,103194.53
2019-02-26T18:56:08.891Z,103196.88
2019-02-26T18:58:38.564Z,103192.36
2019-02-26T19:01:08.189Z,103196.88
2019-02-26T19:03:39.330Z,103193.23
2019-02-26T19:06:10.520Z,103190.18
2019-02-26T19:08:41.549Z,103189.78
2019-02-26T19:11:16.515Z,103187.56
2019-02-26T19:13:42.941Z,103180.59
2019-02-26T19:16:12.793Z,103179.46
2019-02-26T19:18:42.585Z,103180.41
2019-02-26T19:21:12.295Z,103182.66
2019-02-26T19:23:42.210Z,103176.09
2019-02-26T19:26:13.724Z,103182.83
2019-02-26T19:28:43.386Z,103173.88
2019-02-26T19:31:13.076Z,103173.03
2019-02-26T19:33:42.743Z,103166.34
2019-02-26T19:36:12.966Z,103165.94
2019-02-26T19:38:43.302Z,103170.41
2019-02-26T19:41:15.641Z,103173.59
2019-02-26T19:43:45.284Z,103167.41
2019-02-26T19:46:18.065Z,103170.15
2019-02-26T19:48:47.713Z,103163.95
2019-02-26T19:51:22.945Z,103162.66
2019-02-26T19:53:52.881Z,103170.30
2019-02-26T19:56:23.783Z,103160.47
2019-02-26T19:58:55.157Z,103166.25
2019-02-26T20:01:25.863Z,103164.80
2019-02-26T20:03:56.218Z,103159.95
2019-02-26T20:06:26.871Z,103162.28
2019-02-26T20:24:37.255Z,103149.27
2019-02-26T20:27:07.512Z,103144.85
2019-02-26T20:29:37.250Z,103147.11
2019-02-26T20:32:06.965Z,103136.39
2019-02-26T20:34:36.626Z,103139.11
2019-02-26T20:37:06.278Z,103135.11
2019-02-26T20:39:35.918Z,103132.02
2019-02-26T20:42:05.565Z,103132.92
2019-02-26T20:44:35.393Z,103128.43
2019-02-26T20:47:05.034Z,103125.31
2019-02-26T20:49:34.706Z,103121.33
2019-02-26T20:52:04.350Z,103120.47
2019-02-26T20:54:34.036Z,103114.61
2019-02-26T20:57:04.444Z,103118.66
2019-02-26T20:59:34.133Z,103114.16
2019-02-26T21:02:03.857Z,103126.28
2019-02-26T21:04:33.549Z,103119.61
2019-02-26T21:07:03.274Z,103120.98
2019-02-26T21:09:33.010Z,103111.63
2019-02-26T21:12:02.778Z,103111.64
2019-02-26T21:14:32.443Z,103107.59
2019-02-26T21:17:02.179Z,103110.30
2019-02-26T21:19:35.551Z,103106.72
2019-02-26T21:22:03.337Z,103104.92
2019-02-26T21:24:34.615Z,103096.89
2019-02-26T21:27:04.506Z,103098.67
2019-02-26T21:29:34.216Z,103095.55
2019-02-26T21:32:03.942Z,103099.13
2019-02-26T21:34:33.658Z,103102.26
2019-02-26T21:37:03.361Z,103102.73
2019-02-26T21:39:33.077Z,103102.28
2019-02-26T21:42:02.852Z,103097.37
2019-02-26T21:44:32.606Z,103091.11
2019-02-26T21:47:02.924Z,103092.48
2019-02-26T21:49:32.653Z,103089.38
2019-02-26T21:52:04.150Z,103090.27
2019-02-26T21:54:34.138Z,103096.56
2019-02-26T21:57:03.868Z,103097.01
2019-02-26T21:59:33.526Z,103086.29
2019-02-26T22:02:03.226Z,103089.86
2019-02-26T22:04:32.895Z,103084.06
2019-02-26T22:07:02.487Z,103082.30
2019-02-26T22:09:32.105Z,103081.41
2019-02-26T22:12:01.734Z,103082.29
2019-02-26T22:14:31.352Z,103080.95
2019-02-26T22:17:00.990Z,103077.36
2019-02-26T22:19:30.608Z,103076.50
2019-02-26T22:22:00.239Z,103068.47
2019-02-26T22:24:29.856Z,103064.45
2019-02-26T22:27:00.250Z,103071.15
2019-02-26T22:29:30.045Z,103066.25
2019-02-26T22:32:02.419Z,103064.02
2019-02-26T22:34:31.090Z,103060.45
2019-02-26T22:37:00.739Z,103057.77
2019-02-26T22:39:30.334Z,103054.64
2019-02-26T22:41:59.985Z,103056.45
2019-02-26T22:44:29.612Z,103050.18
2019-02-26T22:46:59.346Z,103047.95
2019-02-26T22:49:28.942Z,103048.83
2019-02-26T22:51:59.119Z,103043.03
2019-02-26T22:54:28.770Z,103051.55
2019-02-26T22:56:58.391Z,103039.92
2019-02-26T22:59:28.038Z,103040.39
2019-02-26T23:01:58.695Z,103039.50
2019-02-26T23:04:28.337Z,103043.93
2019-02-26T23:06:57.963Z,103038.61
2019-02-26T23:09:28.713Z,103043.52
2019-02-26T23:12:04.665Z,103036.37
2019-02-26T23:14:31.636Z,103031.91
2019-02-26T23:17:01.829Z,103031.92
2019-02-26T23:19:31.481Z,103027.02
2019-02-26T23:22:08.357Z,103026.55
2019-02-26T23:24:38.036Z,103031.02
2019-02-26T23:27:07.725Z,103026.55
2019-02-26T23:29:40.347Z,103027.02
2019-02-26T23:32:09.991Z,103026.56
2019-02-26T23:34:39.645Z,103030.13
2019-02-26T23:37:15.280Z,103025.21
2019-02-26T23:39:45.190Z,103027.44
2019-02-26T23:42:14.898Z,103022.99
2019-02-26T23:44:44.542Z,103023.45
2019-02-26T23:47:14.154Z,103015.84
2019-02-26T23:49:44.845Z,103020.30
2019-02-26T23:52:15.157Z,103017.20
2019-02-26T23:54:44.804Z,103019.86
2019-02-26T23:57:14.495Z,103011.40
2019-02-26T23:59:44.152Z,103010.05
